Airfield :
LOGIN :

Register | Disclaimer

   EN    FR    IT 

 










Legend :    VFR   Marginal VFR   IFR   Intensive IFR   Very Intensive IFR
Visi :
Ceiling :
>= 8 km
>= 3000ft
5 to 8 km
1000 to 3000 ft
1500m to 5 km
500 to 1000 ft
800 to 1500m
200 to 500 ft
< 800m
< 200 ft
Symbols :   Thunderstorms  Fog  Heavy snow  Heavy precipitations  Wind > 20 kt
SIGMETs :     Misc.  Thunderstorms  Icing  Turbulence  Mountain Waves  Volcanic Ashes







- Airport Elevation : 230 ft
- IATA code : VAR


LBWN - Varna

CURRENT METAR :
  • 152130Z 34003KT 300V020 9999 FEW028 OVC042 04/00 Q1030 NOSIG

EXPIRED METARs :
  • 152100Z 30004KT 260V350 9999 OVC043 03/00 Q1030 NOSIG
  • 152030Z 29004KT 260V330 9999 OVC042 03/M00 Q1030 NOSIG
  • 152000Z 28006KT 9999 FEW018 OVC043 02/M02 Q1030 NOSIG
  • 151930Z 01004KT 330V040 9999 BKN046 03/M03 Q1030 NOSIG
  • 151900Z 33007KT 9999 FEW045 03/M02 Q1030 NOSIG

TAF TAF LBWN
Valid from the 15 at 18:00 until the 16 at 18:00 UTC


151700Z 1518/1618 03010KT 9999 SCT040
BECMG 1520/1522 33008KT
TEMPO 1601/1606 4000 BR BKN010
BECMG 1608/1610 02012KT
No reported NOTAMs for that airfield.



MET'MAP, your aeronautical weather chart ! - Copyright ORBIFLY December 2007 - Disclaimer

ORBIFLY MET'MAP TEAM :

Programming & Development : Alexandra Zaïnal
Concept & Development : Baudouin d'Aumeries
Co-Development & Prog : Marc-Olivier Méhu
Technical & hardware support : Manuel Goepfert

Contact : metmap@orbifly.com




SOURCES & CREDITS :

   NOAA